HISTORICAL SENSOR DATA

Sensor Data Report

DB LIVE
CURRENT TIME--:--:--
DEVICE NETWORK Gateway Status
13 ESP · realtime ~1s · history 60s
Weather WS-MOD-01
ONLINE
Actuator ACT-MOD-01
OFFLINE
Mainboard L3 MB-L3-01
ONLINE
Mainboard L5 MB-L5-01
ONLINE
Remote AC AC-REMOTE-01
ONLINE
PZEM L3-01 PWR-L3-01
OFFLINE
PZEM L3-02 PWR-L3-02
OFFLINE
PZEM L3-03 PWR-L3-03
OFFLINE
PZEM L3-04 PWR-L3-04
OFFLINE
PZEM L5-01 PWR-L5-01
ONLINE
PZEM L5-02 PWR-L5-02
ONLINE
PZEM L5-03 PWR-L5-03
OFFLINE
PZEM L5-04 PWR-L5-04
OFFLINE
REPORT FILTER

Periode & Sensor

DATABASE HISTORY
RESET
QUICK RANGE Hari ini 7 hari 30 hari
PERIODE31 Aug 2026sampai 06 Sep 2026
TOTAL DATA60,910sensor readings
MINIMUM-0.50sesuai filter
AVERAGE90.48sesuai filter
MAXIMUM32,564.20sesuai filter
REPORT RESULT

Data Sensor

31/08/2026 — 06/09/2026 EXPORT CSV
NOTANGGALWAKTUDEVICECHANNELSENSORVALUEUNIT
2901 06/09/2026 21:33:00 AC-REMOTE-01Remote AC AC-FAN AC Fan Speed 0.00 code
2902 06/09/2026 21:33:00 MB-L5-01Mainboard Lantai 5 L5-LUX-06 Illuminance / LUX 6 0.10 lux
2903 06/09/2026 21:33:00 MB-L3-01Mainboard Lantai 3 L3-SHT-03-T SHT20 3 Temperature 29.30 °C
2904 06/09/2026 21:33:00 MB-L5-01Mainboard Lantai 5 L5-SHT-01-T SHT20 1 Temperature 29.30 °C
2905 06/09/2026 21:33:00 MB-L5-01Mainboard Lantai 5 L5-AI-04 Analog Input 4 3.05 V
2906 06/09/2026 21:33:00 MB-L3-01Mainboard Lantai 3 L3-SHT-02-RH SHT20 2 Humidity 44.00 %RH
2907 06/09/2026 21:33:00 MB-L5-01Mainboard Lantai 5 L5-BGT-03 Black Globe Temperature 3 27.10 °C
2908 06/09/2026 21:33:00 MB-L5-01Mainboard Lantai 5 L5-ST-02 Surface Temperature 2 25.10 °C
2909 06/09/2026 21:33:00 MB-L5-01Mainboard Lantai 5 L5-RAD-01 Radiation 1 1.00 W/m²
2910 06/09/2026 21:33:00 PWR-L5-01Power Meter L5 PZEM 01 PZEM-L5-01-FREQ PZEM L5-01 Frequency 50.00 Hz
2911 06/09/2026 21:33:00 PWR-L5-02Power Meter L5 PZEM 02 PZEM-L5-02-CURR PZEM L5-02 Current 0.00 A
2912 06/09/2026 21:33:00 MB-L3-01Mainboard Lantai 3 L3-AI-06 Analog Input 6 3.12 V
2913 06/09/2026 21:33:00 MB-L5-01Mainboard Lantai 5 L5-AI-03 Analog Input 3 3.05 V
2914 06/09/2026 21:33:00 AC-REMOTE-01Remote AC AC-POWER AC Power State 1.00 state
2915 06/09/2026 21:33:00 MB-L5-01Mainboard Lantai 5 L5-BGT-02 Black Globe Temperature 2 27.20 °C
2916 06/09/2026 21:33:00 PWR-L5-01Power Meter L5 PZEM 01 PZEM-L5-01-CURR PZEM L5-01 Current 0.12 A
2917 06/09/2026 21:33:00 WS-MOD-01Weather Station Module WS-WIND Kecepatan Angin 2.85 m/s
2918 06/09/2026 21:33:00 MB-L3-01Mainboard Lantai 3 L3-AI-05 Analog Input 5 3.12 V
2919 06/09/2026 21:33:00 MB-L3-01Mainboard Lantai 3 L3-SHT-02-T SHT20 2 Temperature 29.30 °C
2920 06/09/2026 21:33:00 PWR-L5-02Power Meter L5 PZEM 02 PZEM-L5-02-POWER PZEM L5-02 Active Power 0.00 W
2921 06/09/2026 21:33:00 MB-L5-01Mainboard Lantai 5 L5-ST-01 Surface Temperature 1 25.50 °C
2922 06/09/2026 21:33:00 MB-L5-01Mainboard Lantai 5 L5-SHT-03-RH SHT20 3 Humidity 44.50 %RH
2923 06/09/2026 21:33:00 MB-L5-01Mainboard Lantai 5 L5-SHT-01-RH SHT20 1 Humidity 44.70 %RH
2924 06/09/2026 21:33:00 MB-L5-01Mainboard Lantai 5 L5-AI-02 Analog Input 2 3.05 V
2925 06/09/2026 21:33:00 MB-L3-01Mainboard Lantai 3 L3-SHT-01-T SHT20 1 Temperature 29.20 °C
2926 06/09/2026 21:33:00 MB-L5-01Mainboard Lantai 5 L5-BGT-01 Black Globe Temperature 1 27.30 °C
2927 06/09/2026 21:33:00 MB-L3-01Mainboard Lantai 3 L3-AI-04 Analog Input 4 3.12 V
2928 06/09/2026 21:33:00 WS-MOD-01Weather Station Module WS-TEMP Suhu Udara 20.90 °C
2929 06/09/2026 21:33:00 MB-L3-01Mainboard Lantai 3 L3-LUX-05 Illuminance / LUX 5 0.40 lux
2930 06/09/2026 21:33:00 MB-L3-01Mainboard Lantai 3 L3-LUX-02 Illuminance / LUX 2 0.20 lux
2931 06/09/2026 21:33:00 MB-L5-01Mainboard Lantai 5 L5-SHT-02-RH SHT20 2 Humidity 44.00 %RH
2932 06/09/2026 21:33:00 PWR-L5-02Power Meter L5 PZEM 02 PZEM-L5-02-ENERGY PZEM L5-02 Energy 0.04 kWh
2933 06/09/2026 21:33:00 PWR-L5-01Power Meter L5 PZEM 01 PZEM-L5-01-ENERGY PZEM L5-01 Energy 0.04 kWh
2934 06/09/2026 21:33:00 AC-REMOTE-01Remote AC AC-SETPOINT AC Set Temperature 23.00 °C
2935 06/09/2026 21:33:00 MB-L3-01Mainboard Lantai 3 L3-RAD-02 Radiation 2 0.00 W/m²
2936 06/09/2026 21:33:00 MB-L5-01Mainboard Lantai 5 L5-LUX-04 Illuminance / LUX 4 0.10 lux
2937 06/09/2026 21:33:00 MB-L5-01Mainboard Lantai 5 L5-RAD-02 Radiation 2 1.00 W/m²
2938 06/09/2026 21:33:00 MB-L5-01Mainboard Lantai 5 L5-AI-01 Analog Input 1 3.05 V
2939 06/09/2026 21:33:00 MB-L3-01Mainboard Lantai 3 L3-RAD-01 Radiation 1 1.00 W/m²
2940 06/09/2026 21:33:00 MB-L3-01Mainboard Lantai 3 L3-AI-03 Analog Input 3 3.12 V
2941 06/09/2026 21:33:00 MB-L3-01Mainboard Lantai 3 L3-SHT-01-RH SHT20 1 Humidity 44.60 %RH
2942 06/09/2026 21:32:00 WS-MOD-01Weather Station Module WS-PRES Tekanan Udara 912.00 hPa
2943 06/09/2026 21:32:00 PWR-L5-01Power Meter L5 PZEM 01 PZEM-L5-01-POWER PZEM L5-01 Active Power 10.50 W
2944 06/09/2026 21:32:00 PWR-L5-02Power Meter L5 PZEM 02 PZEM-L5-02-PF PZEM L5-02 Power Factor 0.00
2945 06/09/2026 21:32:00 MB-L5-01Mainboard Lantai 5 L5-AI-05 Analog Input 5 3.05 V
2946 06/09/2026 21:32:00 MB-L5-01Mainboard Lantai 5 L5-SHT-03-T SHT20 3 Temperature 29.40 °C
2947 06/09/2026 21:32:00 MB-L5-01Mainboard Lantai 5 L5-SHT-02-T SHT20 2 Temperature 29.70 °C
2948 06/09/2026 21:32:00 WS-MOD-01Weather Station Module WS-DIR Arah Angin 132.40 °
2949 06/09/2026 21:32:00 MB-L5-01Mainboard Lantai 5 L5-HFT-01 Heat Flow Temperature 1 25.20 °C
2950 06/09/2026 21:32:00 PWR-L5-02Power Meter L5 PZEM 02 PZEM-L5-02-VOLT PZEM L5-02 Voltage 224.60 V
2951 06/09/2026 21:32:00 MB-L3-01Mainboard Lantai 3 L3-SHT-03-RH SHT20 3 Humidity 44.40 %RH
2952 06/09/2026 21:32:00 MB-L5-01Mainboard Lantai 5 L5-LUX-03 Illuminance / LUX 3 0.20 lux
2953 06/09/2026 21:32:00 AC-REMOTE-01Remote AC AC-FAN AC Fan Speed 0.00 code
2954 06/09/2026 21:32:00 MB-L5-01Mainboard Lantai 5 L5-LUX-06 Illuminance / LUX 6 0.10 lux
2955 06/09/2026 21:32:00 MB-L3-01Mainboard Lantai 3 L3-SHT-03-T SHT20 3 Temperature 29.30 °C
2956 06/09/2026 21:32:00 MB-L5-01Mainboard Lantai 5 L5-SHT-01-T SHT20 1 Temperature 29.30 °C
2957 06/09/2026 21:32:00 MB-L5-01Mainboard Lantai 5 L5-AI-04 Analog Input 4 3.05 V
2958 06/09/2026 21:32:00 MB-L3-01Mainboard Lantai 3 L3-SHT-02-RH SHT20 2 Humidity 44.20 %RH
2959 06/09/2026 21:32:00 MB-L5-01Mainboard Lantai 5 L5-BGT-03 Black Globe Temperature 3 27.10 °C
2960 06/09/2026 21:32:00 MB-L5-01Mainboard Lantai 5 L5-ST-02 Surface Temperature 2 25.10 °C
2961 06/09/2026 21:32:00 MB-L5-01Mainboard Lantai 5 L5-RAD-01 Radiation 1 1.00 W/m²
2962 06/09/2026 21:32:00 PWR-L5-01Power Meter L5 PZEM 01 PZEM-L5-01-FREQ PZEM L5-01 Frequency 50.00 Hz
2963 06/09/2026 21:32:00 PWR-L5-02Power Meter L5 PZEM 02 PZEM-L5-02-CURR PZEM L5-02 Current 0.00 A
2964 06/09/2026 21:32:00 MB-L3-01Mainboard Lantai 3 L3-AI-06 Analog Input 6 3.12 V
2965 06/09/2026 21:32:00 MB-L5-01Mainboard Lantai 5 L5-AI-03 Analog Input 3 3.05 V
2966 06/09/2026 21:32:00 AC-REMOTE-01Remote AC AC-POWER AC Power State 1.00 state
2967 06/09/2026 21:32:00 MB-L5-01Mainboard Lantai 5 L5-BGT-02 Black Globe Temperature 2 27.30 °C
2968 06/09/2026 21:32:00 PWR-L5-01Power Meter L5 PZEM 01 PZEM-L5-01-CURR PZEM L5-01 Current 0.12 A
2969 06/09/2026 21:32:00 WS-MOD-01Weather Station Module WS-WIND Kecepatan Angin 3.12 m/s
2970 06/09/2026 21:32:00 MB-L3-01Mainboard Lantai 3 L3-AI-05 Analog Input 5 3.12 V
2971 06/09/2026 21:32:00 MB-L3-01Mainboard Lantai 3 L3-SHT-02-T SHT20 2 Temperature 29.40 °C
2972 06/09/2026 21:32:00 PWR-L5-02Power Meter L5 PZEM 02 PZEM-L5-02-POWER PZEM L5-02 Active Power 0.00 W
2973 06/09/2026 21:32:00 MB-L5-01Mainboard Lantai 5 L5-ST-01 Surface Temperature 1 25.30 °C
2974 06/09/2026 21:32:00 MB-L5-01Mainboard Lantai 5 L5-SHT-03-RH SHT20 3 Humidity 44.60 %RH
2975 06/09/2026 21:32:00 MB-L5-01Mainboard Lantai 5 L5-SHT-01-RH SHT20 1 Humidity 44.70 %RH
2976 06/09/2026 21:32:00 MB-L5-01Mainboard Lantai 5 L5-AI-02 Analog Input 2 3.05 V
2977 06/09/2026 21:32:00 MB-L3-01Mainboard Lantai 3 L3-SHT-01-T SHT20 1 Temperature 29.20 °C
2978 06/09/2026 21:32:00 MB-L5-01Mainboard Lantai 5 L5-BGT-01 Black Globe Temperature 1 27.30 °C
2979 06/09/2026 21:32:00 MB-L3-01Mainboard Lantai 3 L3-AI-04 Analog Input 4 3.12 V
2980 06/09/2026 21:32:00 WS-MOD-01Weather Station Module WS-TEMP Suhu Udara 21.00 °C
2981 06/09/2026 21:32:00 MB-L3-01Mainboard Lantai 3 L3-LUX-05 Illuminance / LUX 5 0.40 lux
2982 06/09/2026 21:32:00 MB-L3-01Mainboard Lantai 3 L3-LUX-02 Illuminance / LUX 2 0.30 lux
2983 06/09/2026 21:32:00 MB-L5-01Mainboard Lantai 5 L5-SHT-02-RH SHT20 2 Humidity 44.00 %RH
2984 06/09/2026 21:32:00 PWR-L5-02Power Meter L5 PZEM 02 PZEM-L5-02-ENERGY PZEM L5-02 Energy 0.04 kWh
2985 06/09/2026 21:32:00 PWR-L5-01Power Meter L5 PZEM 01 PZEM-L5-01-ENERGY PZEM L5-01 Energy 0.04 kWh
2986 06/09/2026 21:32:00 AC-REMOTE-01Remote AC AC-SETPOINT AC Set Temperature 23.00 °C
2987 06/09/2026 21:32:00 MB-L3-01Mainboard Lantai 3 L3-RAD-02 Radiation 2 0.00 W/m²
2988 06/09/2026 21:32:00 MB-L5-01Mainboard Lantai 5 L5-LUX-04 Illuminance / LUX 4 0.10 lux
2989 06/09/2026 21:32:00 MB-L5-01Mainboard Lantai 5 L5-RAD-02 Radiation 2 1.00 W/m²
2990 06/09/2026 21:32:00 MB-L5-01Mainboard Lantai 5 L5-AI-01 Analog Input 1 3.05 V
2991 06/09/2026 21:32:00 MB-L3-01Mainboard Lantai 3 L3-RAD-01 Radiation 1 1.00 W/m²
2992 06/09/2026 21:32:00 MB-L3-01Mainboard Lantai 3 L3-AI-03 Analog Input 3 3.12 V
2993 06/09/2026 21:32:00 MB-L3-01Mainboard Lantai 3 L3-SHT-01-RH SHT20 1 Humidity 44.70 %RH
2994 06/09/2026 21:32:00 MB-L5-01Mainboard Lantai 5 L5-LUX-01 Illuminance / LUX 1 0.10 lux
2995 06/09/2026 21:32:00 PWR-L5-01Power Meter L5 PZEM 01 PZEM-L5-01-VOLT PZEM L5-01 Voltage 224.70 V
2996 06/09/2026 21:32:00 WS-MOD-01Weather Station Module WS-RH Kelembapan Udara 72.30 %RH
2997 06/09/2026 21:32:00 MB-L3-01Mainboard Lantai 3 L3-LUX-06 Illuminance / LUX 6 0.30 lux
2998 06/09/2026 21:32:00 PWR-L5-02Power Meter L5 PZEM 02 PZEM-L5-02-FREQ PZEM L5-02 Frequency 50.00 Hz
2999 06/09/2026 21:32:00 MB-L3-01Mainboard Lantai 3 L3-AI-02 Analog Input 2 3.12 V
3000 06/09/2026 21:32:00 MB-L3-01Mainboard Lantai 3 L3-LUX-01 Illuminance / LUX 1 0.20 lux
Menampilkan maksimal 100 data per halaman